Time;durP1;ratioP1;P1;durP2;ratioP2;P2;SDS_P1;SDS_P2;PMS_P1;PMS_P2;Temp;Humidity;BMP_temperature;BMP_pressure;BME280_temperature;BME280_humidity;BME280_pressure;Samples;Min_cycle;Max_cycle;Signal;HPM_P1;HPM_P2
2023/07/11 00:02:14;;;;;;;0.70;0.43;;;17.00;99.90;;;;;;6342684;22;20011;-84
2023/07/11 00:04:39;;;;;;;0.40;0.30;;;17.00;99.90;;;;;;6353935;22;20018;-83
2023/07/11 00:07:05;;;;;;;1.42;0.60;;;17.00;99.90;;;;;;6356705;22;20022;-84
2023/07/11 00:09:31;;;;;;;2.67;0.70;;;17.00;99.90;;;;;;6357101;22;20062;-84
2023/07/11 00:11:56;;;;;;;2.40;0.75;;;17.00;99.90;;;;;;6355519;22;20023;-83
2023/07/11 00:14:22;;;;;;;2.03;0.52;;;16.90;99.90;;;;;;6358284;22;20015;-83
2023/07/11 00:16:49;;;;;;;0.98;0.50;;;17.00;99.90;;;;;;6358104;22;20025;-83
2023/07/11 00:19:15;;;;;;;0.95;0.65;;;16.90;99.90;;;;;;6357264;22;20015;-83
2023/07/11 00:21:41;;;;;;;2.17;0.68;;;16.90;99.90;;;;;;6358319;22;20019;-84
2023/07/11 00:24:07;;;;;;;0.90;0.50;;;16.90;99.90;;;;;;6363232;22;20041;-83
2023/07/11 00:26:34;;;;;;;4.15;0.93;;;17.00;99.90;;;;;;6365677;22;20003;-83
2023/07/11 00:29:12;;;;;;;0.38;0.32;;;16.90;99.90;;;;;;6360869;22;20169;-84
2023/07/11 00:31:38;;;;;;;1.02;0.50;;;16.90;99.90;;;;;;6352358;22;20072;-83
2023/07/11 00:34:03;;;;;;;1.95;0.60;;;16.90;99.90;;;;;;6348711;22;20442;-83
2023/07/11 00:36:29;;;;;;;1.70;0.70;;;16.90;99.90;;;;;;6350927;22;20135;-83
2023/07/11 00:38:56;;;;;;;4.13;0.70;;;16.80;99.90;;;;;;6349264;22;20019;-83
2023/07/11 00:41:22;;;;;;;2.05;0.60;;;16.80;99.90;;;;;;6348392;22;20018;-83
2023/07/11 00:43:47;;;;;;;0.80;0.60;;;16.80;99.90;;;;;;6348400;22;20026;-83
2023/07/11 00:46:16;;;;;;;0.80;0.40;;;16.80;99.90;;;;;;6350101;22;20015;-83
2023/07/11 00:48:50;;;;;;;2.28;0.47;;;16.80;99.90;;;;;;6350820;22;20018;-83
2023/07/11 00:51:21;;;;;;;1.20;0.60;;;16.80;99.90;;;;;;6350649;22;20038;-83
2023/07/11 00:53:47;;;;;;;0.60;0.38;;;16.80;99.90;;;;;;6349641;22;20014;-84
2023/07/11 00:56:17;;;;;;;1.10;0.50;;;16.90;99.90;;;;;;6342575;22;20011;-83
2023/07/11 00:58:45;;;;;;;1.15;0.40;;;16.90;99.90;;;;;;6338339;22;20019;-83
2023/07/11 01:01:12;;;;;;;1.40;0.47;;;16.90;99.90;;;;;;6337596;22;20019;-84
2023/07/11 01:03:38;;;;;;;6.05;0.50;;;16.90;99.90;;;;;;6340416;22;20011;-83
2023/07/11 01:06:11;;;;;;;1.60;0.60;;;16.80;99.90;;;;;;6339571;22;20089;-84
2023/07/11 01:08:37;;;;;;;2.33;0.60;;;16.90;99.90;;;;;;6338992;22;20085;-83
2023/07/11 01:11:02;;;;;;;1.65;0.60;;;16.90;99.90;;;;;;6339840;22;20099;-85
2023/07/11 01:13:28;;;;;;;1.20;0.50;;;16.80;99.90;;;;;;6311514;22;20015;-83
2023/07/11 01:15:53;;;;;;;2.15;0.60;;;16.90;99.90;;;;;;6338864;22;20567;-85
2023/07/11 01:18:19;;;;;;;1.27;0.63;;;16.80;99.90;;;;;;6339177;22;20011;-84
2023/07/11 01:20:45;;;;;;;0.65;0.50;;;16.80;99.90;;;;;;6337236;22;20007;-83
2023/07/11 01:23:11;;;;;;;2.25;0.60;;;16.70;99.90;;;;;;6344780;22;20052;-83
2023/07/11 01:25:38;;;;;;;2.92;0.60;;;16.70;99.90;;;;;;6339748;22;20029;-84
2023/07/11 01:28:04;;;;;;;1.35;0.47;;;16.70;99.90;;;;;;6339119;22;20006;-83
2023/07/11 01:30:30;;;;;;;1.67;0.80;;;16.80;99.90;;;;;;6337455;22;20023;-83
2023/07/11 01:32:55;;;;;;;0.80;0.50;;;16.80;99.90;;;;;;6339053;22;20046;-84
2023/07/11 01:35:21;;;;;;;1.90;0.80;;;16.80;99.90;;;;;;6336662;22;20093;-84
2023/07/11 01:37:47;;;;;;;1.45;0.70;;;16.80;99.90;;;;;;6337357;22;20015;-83
2023/07/11 01:40:13;;;;;;;1.58;0.60;;;16.80;99.90;;;;;;6338385;22;20017;-84
2023/07/11 01:42:40;;;;;;;2.15;0.60;;;16.80;99.90;;;;;;6338353;22;20086;-83
2023/07/11 01:45:08;;;;;;;1.65;0.50;;;16.80;99.90;;;;;;6338811;22;20025;-83
2023/07/11 01:47:33;;;;;;;1.15;0.50;;;16.80;99.90;;;;;;6336849;22;20516;-84
2023/07/11 01:49:59;;;;;;;1.10;0.50;;;16.90;99.90;;;;;;6338318;22;20054;-83
2023/07/11 01:52:27;;;;;;;1.58;0.90;;;16.90;99.90;;;;;;6338884;22;20093;-84
2023/07/11 01:54:56;;;;;;;1.10;0.60;;;16.90;99.90;;;;;;6310745;22;20026;-84
2023/07/11 01:57:21;;;;;;;3.70;0.95;;;16.90;99.90;;;;;;6338801;22;20449;-83
2023/07/11 01:59:47;;;;;;;1.27;0.50;;;17.00;99.90;;;;;;6338345;22;20022;-84
2023/07/11 02:02:13;;;;;;;1.95;0.60;;;17.00;99.90;;;;;;6338722;22;20376;-83
2023/07/11 02:04:39;;;;;;;1.95;0.50;;;17.00;99.90;;;;;;6336779;22;20054;-84
2023/07/11 02:07:06;;;;;;;1.15;0.60;;;17.00;99.90;;;;;;6338419;22;20102;-83
2023/07/11 02:09:32;;;;;;;1.70;0.70;;;17.00;99.90;;;;;;6337933;22;20065;-83
2023/07/11 02:11:58;;;;;;;1.55;0.57;;;17.00;99.90;;;;;;6338387;22;20015;-83
2023/07/11 02:14:24;;;;;;;2.35;0.60;;;16.90;99.90;;;;;;6340263;22;20333;-84
2023/07/11 02:16:51;;;;;;;1.92;0.75;;;16.90;99.90;;;;;;6338386;22;20019;-83
2023/07/11 02:19:20;;;;;;;1.48;0.70;;;16.90;99.90;;;;;;6340122;22;20011;-84
2023/07/11 02:21:46;;;;;;;1.30;0.80;;;16.80;99.90;;;;;;6338493;22;20098;-84
2023/07/11 02:24:14;;;;;;;1.00;0.70;;;16.70;99.90;;;;;;6340610;22;20072;-84
2023/07/11 02:26:40;;;;;;;2.03;0.60;;;16.70;99.90;;;;;;6340806;22;20086;-84
2023/07/11 02:29:06;;;;;;;1.33;0.60;;;16.60;99.90;;;;;;6312138;22;20445;-84
2023/07/11 02:31:34;;;;;;;1.55;0.68;;;16.60;99.90;;;;;;6340283;22;20019;-84
2023/07/11 02:34:00;;;;;;;1.55;0.70;;;16.60;99.90;;;;;;6338829;22;20019;-83
2023/07/11 02:36:27;;;;;;;3.85;0.70;;;16.60;99.90;;;;;;6338530;22;20022;-83
2023/07/11 02:38:53;;;;;;;1.30;0.65;;;16.60;99.90;;;;;;6339877;22;20085;-84
2023/07/11 02:41:19;;;;;;;0.73;0.43;;;16.60;99.90;;;;;;6339489;22;20084;-83
2023/07/11 02:43:46;;;;;;;0.98;0.40;;;16.50;99.90;;;;;;6339835;22;20015;-85
2023/07/11 02:46:14;;;;;;;2.78;0.52;;;16.50;99.90;;;;;;6340157;22;20050;-84
2023/07/11 02:48:40;;;;;;;0.80;0.40;;;16.50;99.90;;;;;;6340403;22;20011;-83
2023/07/11 02:51:06;;;;;;;2.33;0.55;;;16.50;99.90;;;;;;6339769;22;20075;-83
2023/07/11 02:53:31;;;;;;;1.15;0.52;;;16.50;99.90;;;;;;6339887;22;20006;-83
2023/07/11 02:55:57;;;;;;;1.63;0.70;;;16.60;99.90;;;;;;6339928;22;20021;-84
2023/07/11 02:58:24;;;;;;;1.35;0.60;;;16.50;99.90;;;;;;6339479;22;20011;-83
2023/07/11 03:00:52;;;;;;;1.23;0.63;;;16.50;99.90;;;;;;6339696;22;20445;-83
2023/07/11 03:03:18;;;;;;;0.68;0.50;;;16.50;99.90;;;;;;6340230;22;20019;-83
2023/07/11 03:05:45;;;;;;;0.82;0.50;;;16.50;99.90;;;;;;6338690;22;20025;-83
2023/07/11 03:08:11;;;;;;;1.52;0.60;;;16.50;99.90;;;;;;6338490;22;20018;-85
2023/07/11 03:10:37;;;;;;;1.30;0.52;;;16.50;99.90;;;;;;6339861;22;20094;-85
2023/07/11 03:13:03;;;;;;;0.52;0.40;;;16.50;99.90;;;;;;6339654;22;20088;-86
2023/07/11 03:15:29;;;;;;;2.20;0.50;;;16.50;99.90;;;;;;6337871;22;20038;-83
2023/07/11 03:17:54;;;;;;;1.92;0.50;;;16.50;99.90;;;;;;6339867;22;20429;-88
2023/07/11 03:20:20;;;;;;;0.60;0.40;;;16.50;99.90;;;;;;6340487;22;20383;-88
2023/07/11 03:22:46;;;;;;;2.97;0.55;;;16.50;99.90;;;;;;6340978;22;20026;-89
2023/07/11 03:25:12;;;;;;;0.98;0.50;;;16.60;99.90;;;;;;6340551;22;20011;-89
2023/07/11 03:27:37;;;;;;;1.40;0.47;;;16.50;99.90;;;;;;6340607;22;20043;-88
2023/07/11 03:30:04;;;;;;;0.82;0.60;;;16.50;99.90;;;;;;6338890;22;20017;-92
2023/07/11 03:32:30;;;;;;;1.42;0.50;;;16.50;99.90;;;;;;6340710;22;20014;-89
2023/07/11 03:34:56;;;;;;;1.75;0.50;;;16.50;99.90;;;;;;6340239;22;20044;-89
2023/07/11 03:37:21;;;;;;;1.40;0.40;;;16.50;99.90;;;;;;6340295;22;20023;-88
2023/07/11 03:39:47;;;;;;;1.02;0.50;;;16.50;99.90;;;;;;6337965;22;20151;-89
2023/07/11 03:42:13;;;;;;;1.48;0.50;;;16.50;99.90;;;;;;6339443;22;20019;-87
2023/07/11 03:44:42;;;;;;;0.77;0.40;;;16.50;99.90;;;;;;6339979;22;20054;-90
2023/07/11 03:47:08;;;;;;;1.88;0.70;;;16.50;99.90;;;;;;6339597;22;20090;-89
2023/07/11 03:49:34;;;;;;;1.38;0.50;;;16.50;99.90;;;;;;6339585;22;20050;-92
2023/07/11 03:52:00;;;;;;;1.38;0.50;;;16.50;99.90;;;;;;6339742;22;20303;-87
2023/07/11 03:54:26;;;;;;;1.38;0.60;;;16.50;99.90;;;;;;6339966;22;20045;-88
2023/07/11 03:56:52;;;;;;;3.03;0.65;;;16.40;99.90;;;;;;6338557;22;20019;-87
2023/07/11 03:59:18;;;;;;;2.58;0.70;;;16.50;99.90;;;;;;6337621;22;20089;-87
2023/07/11 04:01:44;;;;;;;2.38;0.60;;;16.50;99.90;;;;;;6339671;22;20053;-86
2023/07/11 04:04:10;;;;;;;1.15;0.47;;;16.50;99.90;;;;;;6340302;22;20379;-89
2023/07/11 04:06:36;;;;;;;1.23;0.60;;;16.50;99.90;;;;;;6338947;22;20042;-89
2023/07/11 04:09:01;;;;;;;0.60;0.40;;;16.50;99.90;;;;;;6338690;22;20027;-88
2023/07/11 04:11:27;;;;;;;3.00;0.70;;;16.50;99.90;;;;;;6339307;22;20019;-87
2023/07/11 04:13:53;;;;;;;1.67;0.50;;;16.50;99.90;;;;;;6337665;22;20011;-90
2023/07/11 04:16:19;;;;;;;1.20;0.50;;;16.50;99.90;;;;;;6338812;22;20021;-89
2023/07/11 04:18:44;;;;;;;1.23;0.50;;;16.50;99.90;;;;;;6339249;22;20069;-88
2023/07/11 04:21:10;;;;;;;0.57;0.40;;;16.50;99.90;;;;;;6339693;22;20011;-87
2023/07/11 04:23:36;;;;;;;0.90;0.50;;;16.60;99.90;;;;;;6337586;22;20022;-86
2023/07/11 04:26:01;;;;;;;1.55;0.60;;;16.60;99.90;;;;;;6339343;22;20038;-83
2023/07/11 04:28:27;;;;;;;1.55;0.50;;;16.60;99.90;;;;;;6338841;22;20506;-91
2023/07/11 04:30:53;;;;;;;1.67;0.50;;;16.60;99.90;;;;;;6339336;22;20014;-87
2023/07/11 04:33:18;;;;;;;2.45;0.70;;;16.70;99.90;;;;;;6339151;22;20018;-85
2023/07/11 04:35:44;;;;;;;1.98;0.60;;;16.70;99.90;;;;;;6339016;22;20045;-88
2023/07/11 04:38:10;;;;;;;3.25;0.80;;;16.70;99.90;;;;;;6338791;22;20042;-86
2023/07/11 04:40:36;;;;;;;0.90;0.60;;;16.70;99.90;;;;;;6338777;22;20364;-86
2023/07/11 04:43:02;;;;;;;3.78;0.70;;;16.80;99.90;;;;;;6338585;22;20318;-85
2023/07/11 04:45:28;;;;;;;2.58;0.55;;;16.80;99.90;;;;;;6337793;22;20015;-90
2023/07/11 04:47:54;;;;;;;0.80;0.50;;;16.90;99.90;;;;;;6339268;22;20014;-86
2023/07/11 04:50:19;;;;;;;3.30;0.73;;;16.90;99.90;;;;;;6339222;22;20489;-90
2023/07/11 04:52:45;;;;;;;2.00;0.60;;;17.00;99.90;;;;;;6338885;22;20057;-85
2023/07/11 04:55:12;;;;;;;0.98;0.50;;;17.00;99.90;;;;;;6338893;22;20073;-92
2023/07/11 04:57:37;;;;;;;2.08;0.60;;;17.10;99.90;;;;;;6339225;22;20445;-85
2023/07/11 05:00:05;;;;;;;1.38;0.70;;;17.10;99.90;;;;;;6337354;22;20085;-87
2023/07/11 05:02:31;;;;;;;0.93;0.45;;;17.20;99.90;;;;;;6338878;22;20022;-86
2023/07/11 05:04:57;;;;;;;7.82;0.88;;;17.30;99.90;;;;;;6339169;22;20015;-88
2023/07/11 05:07:23;;;;;;;1.38;0.90;;;17.30;99.90;;;;;;6339297;22;20022;-88
2023/07/11 05:09:49;;;;;;;0.50;0.45;;;17.30;99.90;;;;;;6337375;22;20019;-88
2023/07/11 05:12:15;;;;;;;1.00;0.55;;;17.40;99.90;;;;;;6339080;22;20500;-92
2023/07/11 05:14:41;;;;;;;1.08;0.60;;;17.40;99.90;;;;;;6339026;22;20021;-88
2023/07/11 05:17:07;;;;;;;1.80;0.40;;;17.40;99.90;;;;;;6311805;22;20437;-88
2023/07/11 05:19:33;;;;;;;1.80;0.60;;;17.50;99.90;;;;;;6340387;22;20062;-89
2023/07/11 05:21:59;;;;;;;1.10;0.68;;;17.50;99.90;;;;;;6339389;22;20061;-92
2023/07/11 05:24:25;;;;;;;1.40;0.60;;;17.60;99.90;;;;;;6341199;22;20097;-88
2023/07/11 05:26:50;;;;;;;2.47;0.70;;;17.80;99.90;;;;;;6339461;22;20427;-83
2023/07/11 05:29:16;;;;;;;2.38;0.85;;;17.90;99.90;;;;;;6339136;22;20068;-89
2023/07/11 05:31:42;;;;;;;2.13;0.63;;;18.00;99.90;;;;;;6338901;22;20097;-87
2023/07/11 05:34:10;;;;;;;1.88;0.82;;;18.10;99.90;;;;;;6339598;22;20011;-88
2023/07/11 05:36:36;;;;;;;2.00;0.70;;;18.30;99.90;;;;;;6343851;22;20077;-86
2023/07/11 05:39:06;;;;;;;3.72;0.73;;;18.30;99.90;;;;;;6335101;22;20446;-87
2023/07/11 05:41:34;;;;;;;1.90;0.80;;;18.40;99.90;;;;;;6336654;22;20014;-88
2023/07/11 05:43:59;;;;;;;3.42;0.75;;;18.50;99.90;;;;;;6340332;22;20073;-86
2023/07/11 05:46:26;;;;;;;1.65;0.60;;;18.60;99.90;;;;;;6341577;22;20019;-86
2023/07/11 05:48:53;;;;;;;1.85;0.90;;;18.70;99.90;;;;;;6338771;22;20014;-86
2023/07/11 05:51:20;;;;;;;1.27;0.63;;;18.70;99.90;;;;;;6340215;22;20378;-85
2023/07/11 05:53:46;;;;;;;4.53;0.88;;;18.80;99.90;;;;;;6338315;22;20011;-84
2023/07/11 05:56:13;;;;;;;1.95;0.90;;;18.90;99.90;;;;;;6340012;22;20022;-86
2023/07/11 05:58:41;;;;;;;2.08;0.95;;;19.00;99.90;;;;;;6338703;22;20022;-85
2023/07/11 06:01:07;;;;;;;3.95;1.00;;;19.00;99.90;;;;;;6338573;22;20059;-88
2023/07/11 06:03:33;;;;;;;3.42;0.90;;;19.00;99.90;;;;;;6338225;22;20370;-87
2023/07/11 06:06:05;;;;;;;3.35;0.80;;;19.00;99.90;;;;;;6340527;22;20017;-87
2023/07/11 06:08:31;;;;;;;1.15;0.65;;;19.10;99.90;;;;;;6338302;22;20021;-85
2023/07/11 06:10:59;;;;;;;3.10;0.90;;;19.20;99.90;;;;;;6338941;22;20379;-88
2023/07/11 06:13:26;;;;;;;1.20;0.70;;;19.30;99.90;;;;;;6340054;22;20025;-86
2023/07/11 06:16:01;;;;;;;1.60;0.77;;;19.40;99.90;;;;;;6312102;22;20461;-85
2023/07/11 06:18:27;;;;;;;1.88;1.20;;;19.50;99.90;;;;;;6338605;22;20010;-85
2023/07/11 06:20:53;;;;;;;4.30;0.90;;;19.50;99.90;;;;;;6338653;22;20088;-87
2023/07/11 06:23:19;;;;;;;3.35;1.00;;;19.50;99.90;;;;;;6338196;22;20437;-86
2023/07/11 06:25:47;;;;;;;1.63;0.90;;;19.50;99.90;;;;;;6338364;22;20412;-85
2023/07/11 06:28:13;;;;;;;3.50;0.98;;;19.60;99.90;;;;;;6340151;22;20011;-85
2023/07/11 06:30:41;;;;;;;2.45;0.90;;;19.70;99.90;;;;;;6340413;22;20011;-85
2023/07/11 06:33:13;;;;;;;1.40;0.73;;;19.80;99.90;;;;;;6340432;22;20007;-85
2023/07/11 06:35:40;;;;;;;4.10;1.27;;;20.00;99.90;;;;;;6340158;22;20010;-85
2023/07/11 06:38:09;;;;;;;2.22;1.00;;;20.20;99.90;;;;;;6339842;22;20072;-84
2023/07/11 06:40:35;;;;;;;1.95;1.00;;;20.30;99.90;;;;;;6339796;22;20014;-85
2023/07/11 06:43:01;;;;;;;4.82;1.20;;;20.50;99.90;;;;;;6340197;22;20019;-86
2023/07/11 06:45:26;;;;;;;3.38;0.90;;;20.60;99.90;;;;;;6340262;22;20010;-84
2023/07/11 06:47:52;;;;;;;2.33;1.17;;;20.80;99.90;;;;;;6312219;22;20442;-82
2023/07/11 06:50:18;;;;;;;2.50;1.73;;;21.00;99.90;;;;;;6339718;22;20018;-83
2023/07/11 06:52:44;;;;;;;2.75;1.45;;;21.10;99.90;;;;;;6339686;22;20022;-83
2023/07/11 06:55:10;;;;;;;2.70;0.90;;;21.30;99.90;;;;;;6338149;22;20014;-88
2023/07/11 06:57:36;;;;;;;3.20;0.98;;;21.40;99.90;;;;;;6339881;22;20061;-86
2023/07/11 07:00:02;;;;;;;2.63;0.82;;;21.60;99.90;;;;;;6339684;22;20011;-84
2023/07/11 07:02:28;;;;;;;2.53;1.20;;;21.70;99.90;;;;;;6339750;22;20071;-85
2023/07/11 07:04:55;;;;;;;1.90;0.80;;;21.80;99.90;;;;;;6339754;22;20058;-84
2023/07/11 07:07:21;;;;;;;3.58;1.10;;;21.80;99.90;;;;;;6340088;22;20007;-84
2023/07/11 07:09:47;;;;;;;2.80;1.20;;;21.80;99.90;;;;;;6340695;22;20029;-82
2023/07/11 07:12:12;;;;;;;1.98;0.85;;;21.90;99.90;;;;;;6318479;22;20019;-82
2023/07/11 07:14:38;;;;;;;2.53;0.80;;;22.00;99.90;;;;;;6346948;22;20015;-88
2023/07/11 07:17:04;;;;;;;2.78;1.05;;;22.20;99.90;;;;;;6342942;22;20437;-87
2023/07/11 07:19:30;;;;;;;3.17;1.02;;;22.40;99.90;;;;;;6342135;22;20026;-87
2023/07/11 07:21:55;;;;;;;2.22;0.70;;;22.60;99.90;;;;;;6341534;22;20019;-86
2023/07/11 07:24:21;;;;;;;2.65;1.05;;;22.80;99.90;;;;;;6340633;22;20015;-83
2023/07/11 07:26:47;;;;;;;3.38;0.70;;;22.80;99.90;;;;;;6340630;22;20321;-90
2023/07/11 07:29:12;;;;;;;2.03;0.80;;;22.90;99.90;;;;;;6340466;22;20015;-88
2023/07/11 07:31:38;;;;;;;1.20;0.80;;;23.10;99.90;;;;;;6337958;22;20045;-88
2023/07/11 07:34:04;;;;;;;1.45;0.75;;;23.20;99.90;;;;;;6340083;22;20018;-89
2023/07/11 07:36:29;;;;;;;2.25;0.70;;;23.30;99.90;;;;;;6340303;22;20326;-88
2023/07/11 07:38:55;;;;;;;2.53;0.80;;;23.50;99.90;;;;;;6339818;22;20567;-87
2023/07/11 07:41:21;;;;;;;2.03;1.00;;;23.60;99.90;;;;;;6311627;22;20088;-86
2023/07/11 07:43:47;;;;;;;1.50;1.00;;;23.70;99.90;;;;;;6339724;22;20026;-87
2023/07/11 07:46:15;;;;;;;3.55;0.88;;;23.80;99.90;;;;;;6339896;22;20050;-89
2023/07/11 07:48:41;;;;;;;2.10;0.70;;;23.80;99.90;;;;;;6338055;22;20023;-88
2023/07/11 07:51:10;;;;;;;3.33;0.80;;;23.80;99.90;;;;;;6339339;22;20307;-88
2023/07/11 07:53:36;;;;;;;1.15;0.70;;;23.90;99.90;;;;;;6339557;22;20085;-88
2023/07/11 07:56:22;;;;;;;2.75;0.60;;;23.90;99.90;;;;;;6339241;22;20429;-88
2023/07/11 07:58:48;;;;;;;2.40;0.70;;;23.90;99.90;;;;;;6338212;22;20057;-88
2023/07/11 08:01:17;;;;;;;1.77;0.60;;;24.00;99.90;;;;;;6339611;22;20053;-87
2023/07/11 08:03:43;;;;;;;2.67;0.88;;;24.10;99.90;;;;;;6339682;22;20412;-90
2023/07/11 08:06:11;;;;;;;2.40;0.70;;;24.10;99.90;;;;;;6339541;22;20015;-87
2023/07/11 08:08:37;;;;;;;4.20;0.68;;;24.20;99.90;;;;;;6337283;22;20011;-88
2023/07/11 08:11:05;;;;;;;1.85;0.73;;;24.30;99.90;;;;;;6337110;22;20409;-88
2023/07/11 08:13:30;;;;;;;3.00;1.08;;;24.30;99.90;;;;;;6339697;22;20082;-88
2023/07/11 08:15:56;;;;;;;2.00;0.88;;;24.40;99.90;;;;;;6337537;22;20097;-88
2023/07/11 08:18:22;;;;;;;1.90;0.80;;;24.50;99.90;;;;;;6337382;22;20079;-88
2023/07/11 08:20:48;;;;;;;3.70;0.70;;;24.50;99.90;;;;;;6337633;22;20018;-87
2023/07/11 08:23:15;;;;;;;2.55;0.90;;;24.60;99.90;;;;;;6312069;22;20476;-89
2023/07/11 08:25:41;;;;;;;2.42;0.70;;;24.80;99.90;;;;;;6339299;22;20014;-87
2023/07/11 08:28:07;;;;;;;2.83;0.80;;;24.90;99.90;;;;;;6339274;22;20079;-90
2023/07/11 08:30:37;;;;;;;2.30;0.70;;;24.90;99.90;;;;;;6339341;22;20066;-90
2023/07/11 08:33:03;;;;;;;4.95;0.80;;;24.90;99.90;;;;;;6338758;22;20080;-88
2023/07/11 08:35:29;;;;;;;1.73;0.68;;;24.80;99.90;;;;;;6338959;22;20089;-90
2023/07/11 08:37:55;;;;;;;3.28;0.98;;;24.70;99.90;;;;;;6338893;22;20083;-91
2023/07/11 08:40:23;;;;;;;1.33;0.75;;;24.60;99.90;;;;;;6338813;22;20015;-90
2023/07/11 08:42:49;;;;;;;2.08;0.70;;;24.70;99.90;;;;;;6337414;22;20014;-90
2023/07/11 08:45:42;;;;;;;1.63;0.85;;;24.70;99.90;;;;;;6338943;22;20345;-88
2023/07/11 08:48:14;;;;;;;2.95;0.80;;;24.80;99.90;;;;;;6338941;22;20471;-90
2023/07/11 08:51:15;;;;;;;1.83;0.80;;;25.00;99.90;;;;;;6339326;22;20050;-88
2023/07/11 08:54:00;;;;;;;1.27;0.70;;;25.10;99.90;;;;;;6337825;22;20011;-89
2023/07/11 08:56:36;;;;;;;1.73;0.68;;;25.30;99.90;;;;;;6338896;22;20491;-88
2023/07/11 08:59:15;;;;;;;3.28;0.80;;;25.60;99.90;;;;;;6339333;22;20010;-88
2023/07/11 09:02:02;;;;;;;1.35;0.70;;;25.90;99.90;;;;;;6339361;22;20387;-88
2023/07/11 09:04:30;;;;;;;2.20;0.80;;;26.10;99.90;;;;;;6339078;22;20029;-86
2023/07/11 09:07:18;;;;;;;1.98;0.75;;;26.30;99.90;;;;;;6339123;22;20018;-85
2023/07/11 09:09:44;;;;;;;3.15;0.75;;;26.40;99.90;;;;;;6214882;23;20351;-85
2023/07/11 09:12:26;;;;;;;2.20;1.02;;;26.50;99.90;;;;;;6189616;23;20016;-89
2023/07/11 09:15:33;;;;;;;3.63;0.80;;;26.40;99.30;;;;;;6188444;23;20106;-86
2023/07/11 09:18:40;;;;;;;3.90;0.88;;;26.60;99.90;;;;;;6123561;23;20029;-89
2023/07/11 09:21:17;;;;;;;1.63;0.60;;;26.80;99.90;;;;;;5985619;23;20020;-87
2023/07/11 09:23:48;;;;;;;2.60;0.85;;;26.90;99.70;;;;;;6009295;23;20051;-86
2023/07/11 09:26:25;;;;;;;2.70;0.70;;;27.20;99.90;;;;;;5984803;23;20372;-88
2023/07/11 09:28:57;;;;;;;3.85;0.77;;;27.30;99.90;;;;;;5984558;23;20021;-86
2023/07/11 09:31:23;;;;;;;3.58;0.80;;;27.40;99.50;;;;;;5961427;23;20023;-87
2023/07/11 09:33:55;;;;;;;2.72;0.75;;;27.50;99.50;;;;;;5984486;23;20115;-87
2023/07/11 09:36:37;;;;;;;2.97;0.77;;;27.40;98.70;;;;;;5961084;23;20079;-91
2023/07/11 09:39:29;;;;;;;2.08;0.60;;;27.10;99.60;;;;;;5984617;23;20355;-90
2023/07/11 09:42:19;;;;;;;4.18;0.80;;;27.70;99.70;;;;;;5966611;24;20124;-85
2023/07/11 09:45:05;;;;;;;2.70;1.00;;;27.80;98.40;;;;;;5956631;23;20028;-91
2023/07/11 09:47:32;;;;;;;1.80;0.90;;;28.10;98.10;;;;;;6024957;23;20061;-91
2023/07/11 09:50:00;;;;;;;2.67;0.60;;;28.10;97.60;;;;;;6014470;23;20355;-91
2023/07/11 09:52:28;;;;;;;1.42;0.52;;;28.40;98.90;;;;;;6014030;23;20059;-88
2023/07/11 09:54:58;;;;;;;2.70;0.63;;;28.40;96.00;;;;;;6076205;23;20029;-91
2023/07/11 09:57:24;;;;;;;2.10;0.60;;;28.60;96.30;;;;;;6160488;22;20095;-87
2023/07/11 09:59:59;;;;;;;1.00;0.60;;;28.70;96.00;;;;;;6307191;22;20012;-88
2023/07/11 10:02:25;;;;;;;5.20;0.80;;;28.90;95.70;;;;;;6279540;22;20012;-87
2023/07/11 10:04:57;;;;;;;1.75;0.60;;;28.90;94.60;;;;;;6306824;22;20022;-88
2023/07/11 10:07:26;;;;;;;2.47;0.50;;;28.90;95.00;;;;;;6307015;22;20007;-86
2023/07/11 10:10:02;;;;;;;2.72;0.60;;;28.80;95.20;;;;;;6279155;22;20024;-87
2023/07/11 10:12:28;;;;;;;1.10;0.52;;;28.90;95.40;;;;;;6279173;22;20453;-84
2023/07/11 10:14:58;;;;;;;2.92;0.60;;;28.80;95.30;;;;;;6306659;22;20481;-86
2023/07/11 10:17:30;;;;;;;2.40;0.50;;;29.10;96.30;;;;;;6307064;22;20011;-87
2023/07/11 10:19:58;;;;;;;2.40;0.63;;;29.20;94.10;;;;;;6279312;22;20019;-87
2023/07/11 10:22:27;;;;;;;2.22;0.77;;;29.30;94.20;;;;;;6306912;22;20077;-85
2023/07/11 10:25:17;;;;;;;3.92;0.85;;;29.20;94.40;;;;;;6279744;22;20019;-85
2023/07/11 10:27:52;;;;;;;1.65;0.60;;;29.30;95.30;;;;;;6279625;22;20520;-83
2023/07/11 10:30:29;;;;;;;1.25;0.50;;;29.20;93.60;;;;;;6279248;22;20019;-87
2023/07/11 10:33:07;;;;;;;3.42;0.70;;;29.00;94.00;;;;;;6306577;22;20023;-84
2023/07/11 10:35:34;;;;;;;2.65;0.60;;;29.00;95.00;;;;;;6308926;22;20350;-87
2023/07/11 10:38:06;;;;;;;2.40;0.50;;;29.10;94.10;;;;;;6308943;22;20042;-84
2023/07/11 10:40:38;;;;;;;3.65;0.65;;;29.10;94.20;;;;;;6310687;22;20090;-83
2023/07/11 10:43:28;;;;;;;3.28;0.70;;;29.10;94.00;;;;;;6283418;22;20030;-84
2023/07/11 10:46:01;;;;;;;1.80;0.60;;;29.00;93.70;;;;;;6309660;22;20011;-81
2023/07/11 10:48:33;;;;;;;2.17;0.50;;;29.00;93.00;;;;;;6308797;22;20012;-84
2023/07/11 10:51:07;;;;;;;2.35;0.60;;;29.10;92.90;;;;;;6308775;22;20087;-84
2023/07/11 10:53:41;;;;;;;2.58;0.60;;;29.20;93.40;;;;;;6308739;22;20019;-86
2023/07/11 10:56:19;;;;;;;2.70;0.40;;;29.20;94.20;;;;;;6280808;22;20069;-86
2023/07/11 10:58:46;;;;;;;2.67;0.70;;;29.20;92.90;;;;;;6308441;22;20019;-85
2023/07/11 11:01:39;;;;;;;6.25;0.80;;;29.30;94.10;;;;;;6309180;22;20014;-87
2023/07/11 11:04:26;;;;;;;1.67;0.50;;;29.20;93.20;;;;;;6308575;22;20022;-84
2023/07/11 11:07:12;;;;;;;2.53;0.70;;;29.40;93.70;;;;;;6308786;22;20019;-85
2023/07/11 11:09:54;;;;;;;2.58;0.70;;;29.30;93.10;;;;;;6308398;22;20004;-84
2023/07/11 11:12:39;;;;;;;2.47;0.70;;;29.30;94.00;;;;;;6308483;22;20058;-84
2023/07/11 11:15:31;;;;;;;2.17;0.50;;;29.20;93.00;;;;;;6308442;22;20454;-84
2023/07/11 11:18:06;;;;;;;1.30;0.60;;;29.40;93.60;;;;;;6308288;22;20438;-82
2023/07/11 11:20:56;;;;;;;1.90;0.60;;;29.40;93.40;;;;;;6308997;22;20012;-82
2023/07/11 11:23:40;;;;;;;2.40;0.73;;;29.30;92.00;;;;;;6308442;22;20476;-84
2023/07/11 11:26:23;;;;;;;3.30;0.70;;;29.30;92.30;;;;;;6308001;22;20015;-84
2023/07/11 11:29:06;;;;;;;1.52;0.90;;;29.40;92.40;;;;;;6308956;22;20365;-86
2023/07/11 11:31:36;;;;;;;0.80;0.40;;;29.70;93.90;;;;;;6281743;22;20015;-81
2023/07/11 11:34:05;;;;;;;3.53;1.45;;;29.90;92.20;;;;;;6281622;22;20108;-87
2023/07/11 11:36:57;;;;;;;1.98;0.65;;;29.90;93.50;;;;;;6307334;22;20026;-86
2023/07/11 11:39:54;;;;;;;1.80;0.90;;;30.10;93.20;;;;;;6280341;22;20021;-85
2023/07/11 11:42:30;;;;;;;1.20;0.60;;;29.90;92.60;;;;;;6177323;23;20029;-84
2023/07/11 11:45:14;;;;;;;4.68;0.68;;;29.90;92.90;;;;;;6183234;23;20474;-85
2023/07/11 11:47:40;;;;;;;1.40;0.60;;;29.80;93.50;;;;;;6158534;23;20027;-85
2023/07/11 11:50:14;;;;;;;2.25;0.50;;;30.10;93.50;;;;;;6157951;23;20042;-84
2023/07/11 11:52:41;;;;;;;2.72;0.98;;;30.10;93.10;;;;;;6158472;23;20103;-87
2023/07/11 11:55:24;;;;;;;3.00;0.70;;;30.30;92.40;;;;;;6158142;23;20017;-85
2023/07/11 11:57:52;;;;;;;1.33;0.68;;;30.50;93.70;;;;;;6183007;23;20060;-87
2023/07/11 12:00:35;;;;;;;2.60;0.70;;;30.80;93.10;;;;;;6159315;23;20047;-84
2023/07/11 12:03:01;;;;;;;2.22;0.60;;;31.10;93.60;;;;;;6158593;23;20161;-84
2023/07/11 12:05:27;;;;;;;3.72;0.65;;;31.10;92.90;;;;;;6158170;23;20028;-83
2023/07/11 12:08:27;;;;;;;2.55;0.75;;;30.70;92.40;;;;;;6183063;23;20024;-82
2023/07/11 12:11:08;;;;;;;1.63;0.70;;;30.70;93.00;;;;;;6094817;23;20029;-82
2023/07/11 12:13:42;;;;;;;3.47;1.05;;;30.60;92.50;;;;;;6097586;23;20473;-84
2023/07/11 12:16:32;;;;;;;3.25;0.60;;;30.30;92.00;;;;;;6097011;23;20025;-87
2023/07/11 12:18:59;;;;;;;1.98;0.60;;;30.20;93.70;;;;;;6152054;23;20020;-84
2023/07/11 12:25:34;;;;;;;1.88;0.70;;;30.10;93.40;;;;;;6222208;23;20012;-84
2023/07/11 12:28:01;;;;;;;3.08;0.77;;;30.00;93.00;;;;;;6190766;23;20021;-87
2023/07/11 12:30:26;;;;;;;14.18;3.00;;;29.90;93.60;;;;;;6214104;23;20440;-90
2023/07/11 12:32:54;;;;;;;4.05;0.85;;;29.80;93.80;;;;;;6192973;23;20027;-84
2023/07/11 12:35:25;;;;;;;3.22;0.90;;;30.00;93.80;;;;;;6215175;23;20024;-85
2023/07/11 12:37:56;;;;;;;126.40;85.10;;;29.90;94.00;;;;;;6188360;23;20090;-87
2023/07/11 12:40:38;;;;;;;;;;;29.80;93.70;;;;;;6188146;23;20811;-83
2023/07/11 12:43:14;;;;;;;;;;;30.00;94.30;;;;;;6213560;23;20180;-83
2023/07/11 12:45:40;;;;;;;;;;;30.00;93.50;;;;;;6231150;22;20422;-89
2023/07/11 12:48:11;;;;;;;;;;;30.10;93.50;;;;;;6282450;22;19951;-86
2023/07/11 12:50:53;;;;;;;;;;;30.10;92.70;;;;;;6308395;22;20038;-87
2023/07/11 12:53:22;;;;;;;;;;;30.10;92.10;;;;;;6282063;22;19961;-93
2023/07/11 12:55:49;;;;;;;;;;;30.10;93.60;;;;;;6256262;22;20382;-84
2023/07/11 12:58:19;;;;;;;;;;;30.10;93.00;;;;;;6282120;22;19947;-86
2023/07/11 13:00:45;;;;;;;;;;;30.00;93.40;;;;;;6309302;22;20412;-86
2023/07/11 13:03:31;;;;;;;;;;;30.10;93.60;;;;;;6311269;22;19950;-84
2023/07/11 13:12:41;;;;;;;;;;;30.80;93.30;;;;;;6309859;22;19970;-88
2023/07/11 13:15:12;;;;;;;;;;;31.10;93.60;;;;;;6316752;22;19946;-85